Flight Track Log - Related Links

Times and Time Zones

All times are in EDT time to prevent confusion due to time zone crossing. See the ASH3732 flight status page for this flight to view local times or setup timezone preferences in your user account.

Time Position Orientation Groundspeed Altitude Reporting Facility
EDT Latitude Longitude Course Direction KTS MPH feet Rate Location/Type
Thu 08:35:17 AM 38.9000 -77.4667 287° West 194 223 1,900  Level Potomac TRACON
Thu 08:36:17 AM 38.8333 -77.5167 210° Southwest 272 313 3,900 2,579 Climbing Potomac TRACON
Thu 08:37:11 AM 38.8000 -77.5833 237° Southwest 260 299 6,800 2,862 Climbing Potomac TRACON
Thu 08:38:06 AM 38.7667 -77.6667 243° Southwest 273 314 9,100 1,969 Climbing Potomac TRACON
Thu 08:39:22 AM 38.7806 -77.7939 278° West 296 341 11,100 1,752 Climbing Washington Center
Thu 08:40:00 AM 38.8109 -78.0357 287° West  Level FlightAware Approximate
Thu 08:40:23 AM 38.8014 -77.9092 283° West 317 365 13,100  Level Washington Center
Thu 08:41:24 AM 38.8219 -78.0269 283° West 331 381 15,100 1,866 Climbing Washington Center
Thu 08:42:22 AM 38.8425 -78.1478 282° West 344 396 16,800 1,576 Climbing Washington Center
Thu 08:43:22 AM 38.8522 -78.2733 276° West 349 402 18,200 1,426 Climbing Washington Center
Thu 08:44:24 AM 38.8514 -78.4067 270° West 361 415 19,700 1,500 Climbing Washington Center
Thu 08:45:22 AM 38.8503 -78.5372 269° West 368 423 21,200 1,475 Climbing Washington Center
Thu 08:46:22 AM 38.8489 -78.6756 269° West 375 432 22,600 1,289 Climbing Washington Center
Thu 08:47:23 AM 38.8475 -78.8117 269° West 381 438 23,800 1,091 Climbing Washington Center
Thu 08:48:23 AM 38.8436 -78.9528 268° West 386 444 24,800 942 Climbing Washington Center
Thu 08:49:24 AM 38.8417 -79.0911 269° West 386 444 25,700 942 Climbing Washington Center
Thu 08:50:24 AM 38.8394 -79.2350 269° West 392 451 26,700 864 Climbing Washington Center
Thu 08:51:22 AM 38.8372 -79.3789 269° West 402 463 27,400 807 Climbing Washington Center
Thu 08:52:23 AM 38.8344 -79.5225 269° West 407 468 28,300 1,180 Climbing Washington Center
Thu 08:53:24 AM 38.8336 -79.6744 270° West 418 481 29,800 1,311 Climbing Washington Center
Thu 08:54:22 AM 38.8289 -79.8128 268° West 411 473 30,900 1,067 Climbing Washington Center
Thu 08:54:54 AM 38.8258 -79.8758 266° West 391 450 31,400 1,149 Climbing Indianapolis Center
Thu 08:55:56 AM 38.8225 -80.0122 268° West 384 442 32,700 1,113 Climbing Indianapolis Center
Thu 08:56:58 AM 38.8194 -80.1450 268° West 378 435 33,700 629 Climbing Indianapolis Center
Thu 08:58:00 AM 38.8153 -80.2789 268° West 376 433 34,000 484 Climbing Indianapolis Center
Thu 08:59:02 AM 38.8100 -80.4183 267° West 388 447 34,700 919 Climbing Indianapolis Center
Thu 09:00:04 AM 38.8075 -80.5786 269° West 378 435 35,900 629 Climbing Indianapolis Center
Thu 09:01:06 AM 38.8017 -80.7122 267° West 376 433 36,000 48 Climbing Indianapolis Center
Thu 09:02:08 AM 38.7972 -80.8511 268° West 390 449 36,000  Level Indianapolis Center
Thu 09:03:10 AM 38.7928 -80.9933 268° West 398 458 36,000  Level Indianapolis Center
Thu 09:04:12 AM 38.7886 -81.1358 268° West 401 461 36,000  Level Indianapolis Center
Thu 09:05:14 AM 38.7839 -81.2767 268° West 399 459 36,000  Level Indianapolis Center
Thu 09:06:16 AM 38.7786 -81.4339 268° West 398 458 36,000  Level Indianapolis Center
Thu 09:07:18 AM 38.7719 -81.5747 267° West 398 458 36,000  Level Indianapolis Center
Thu 09:08:20 AM 38.7675 -81.7183 268° West 397 457 36,000  Level Indianapolis Center
Thu 09:09:22 AM 38.7606 -81.8881 267° West 400 460 36,000  Level Indianapolis Center
Thu 09:10:24 AM 38.7547 -82.0303 267° West 401 461 36,000  Level Indianapolis Center
Thu 09:11:26 AM 38.7483 -82.1697 267° West 396 456 36,000  Level Indianapolis Center
Thu 09:12:28 AM 38.7433 -82.3114 267° West 399 459 36,000  Level Indianapolis Center
Thu 09:13:30 AM 38.7386 -82.4550 268° West 404 465 36,000 48 Level Indianapolis Center
Thu 09:14:32 AM 38.7319 -82.5967 267° West 400 460 36,100 532 Climbing Indianapolis Center
Thu 09:15:34 AM 38.7247 -82.7650 267° West 395 455 37,100 919 Climbing Indianapolis Center
Thu 09:16:36 AM 38.7192 -82.8989 267° West 381 438 38,000 435 Climbing Indianapolis Center
Thu 09:17:38 AM 38.7136 -83.0344 267° West 381 438 38,000  Level Indianapolis Center
Thu 09:18:40 AM 38.7061 -83.1744 266° West 385 443 38,000  Level Indianapolis Center
Thu 09:19:42 AM 38.7000 -83.3156 267° West 391 450 38,000 -48 Level Indianapolis Center
Thu 09:20:44 AM 38.6933 -83.4558 267° West 391 450 37,900  Descending Indianapolis Center
Thu 09:21:46 AM 38.6872 -83.5956 267° West 390 449 38,000 48 Climbing Indianapolis Center
Thu 09:22:48 AM 38.6797 -83.7353 266° West 391 450 38,000  Level Indianapolis Center
Thu 09:23:50 AM 38.6708 -83.8992 266° West 393 452 38,000  Level Indianapolis Center
Thu 09:24:52 AM 38.6636 -84.0419 266° West 397 457 38,000  Level Indianapolis Center
Thu 09:25:54 AM 38.6553 -84.1856 266° West 400 460 38,000  Level Indianapolis Center
Thu 09:26:56 AM 38.6503 -84.3306 268° West 403 464 38,000  Level Indianapolis Center
Thu 09:27:58 AM 38.6597 -84.4792 275° West 413 475 38,000  Level Indianapolis Center
Thu 09:29:00 AM 38.6683 -84.6392 274° West 415 478 38,000  Level Indianapolis Center
Thu 09:30:02 AM 38.6767 -84.7875 274° West 418 481 38,000  Level Indianapolis Center
Thu 09:31:04 AM 38.6850 -84.9375 274° West 424 488 38,000  Level Indianapolis Center
Thu 09:32:06 AM 38.6939 -85.0864 274° West 422 486 38,000  Level Indianapolis Center
Thu 09:33:09 AM 38.7008 -85.2353 273° West 421 484 38,000  Level Indianapolis Center
Thu 09:34:11 AM 38.7108 -85.4117 274° West 417 480 38,000  Level Indianapolis Center
Thu 09:35:13 AM 38.7186 -85.5597 274° West 417 480 38,000  Level Indianapolis Center
Thu 09:36:15 AM 38.7261 -85.7036 274° West 410 472 38,000  Level Indianapolis Center
Thu 09:37:17 AM 38.7319 -85.8497 273° West 411 473 38,000  Level Indianapolis Center
Thu 09:38:19 AM 38.7397 -85.9958 274° West 409 471 38,000  Level Indianapolis Center
Thu 09:39:21 AM 38.7464 -86.1400 273° West 406 467 38,000  Level Indianapolis Center
Thu 09:40:23 AM 38.7522 -86.2856 273° West 408 470 38,000  Level Indianapolis Center
Thu 09:41:25 AM 38.7597 -86.4606 273° West 411 473 38,000  Level Indianapolis Center
Thu 09:42:27 AM 38.7653 -86.6058 273° West 409 471 38,000  Level Indianapolis Center
Thu 09:43:29 AM 38.7717 -86.7528 273° West 413 475 38,000  Level Indianapolis Center
Thu 09:44:31 AM 38.7778 -86.8997 273° West 415 478 38,000  Level Indianapolis Center
Thu 09:45:33 AM 38.7833 -87.0458 273° West 413 475 38,000  Level Indianapolis Center
Thu 09:46:35 AM 38.7892 -87.1931 273° West 415 478 38,000  Level Indianapolis Center
Thu 09:47:37 AM 38.7950 -87.3703 272° West 416 479 38,000  Level Indianapolis Center
Thu 09:48:39 AM 38.8003 -87.5197 273° West 419 482 38,000  Level Indianapolis Center
Thu 09:49:41 AM 38.8044 -87.6689 272° West 420 483 38,000  Level Indianapolis Center
Thu 09:50:43 AM 38.8094 -87.8178 273° West 420 483 38,000  Level Indianapolis Center
Thu 09:51:45 AM 38.8136 -87.9667 272° West 419 482 38,000  Level Indianapolis Center
Thu 09:52:47 AM 38.8181 -88.1156 272° West 417 480 38,000  Level Indianapolis Center
Thu 09:53:20 AM 38.8197 -88.2067 271° West 420 483 38,000  Level Kansas City Center
Thu 09:54:22 AM 38.8233 -88.3564 272° West 420 483 38,000  Level Kansas City Center
Thu 09:55:24 AM 38.8275 -88.5050 272° West 419 482 38,000  Level Kansas City Center
Thu 09:56:27 AM 38.8306 -88.6833 271° West 420 483 38,000  Level Kansas City Center
Thu 09:57:28 AM 38.8333 -88.8322 271° West 421 484 38,000  Level Kansas City Center
Thu 09:58:30 AM 38.8375 -88.9911 272° West 417 480 38,000  Level Kansas City Center
Thu 09:59:32 AM 38.8431 -89.1394 273° West 417 480 38,000  Level Kansas City Center
Thu 10:00:34 AM 38.8456 -89.2992 271° West 418 481 38,000  Level Kansas City Center
Thu 10:01:36 AM 38.8483 -89.4467 271° West 416 479 38,000  Level Kansas City Center
Thu 10:02:38 AM 38.8514 -89.6058 271° West 417 480 38,000  Level Kansas City Center
Thu 10:03:40 AM 38.8525 -89.7508 271° West 419 482 38,000  Level Kansas City Center
Thu 10:04:42 AM 38.8544 -89.8989 271° West 418 481 38,000 -435 Level Kansas City Center
Thu 10:05:44 AM 38.8742 -90.0536 279° West 425 489 37,100 -968 Descending Kansas City Center
Thu 10:06:46 AM 38.9217 -90.1889 294° West 417 480 36,000 -532 Descending Kansas City Center
Thu 10:07:48 AM 38.9708 -90.3386 293° West 413 475 36,000  Level Kansas City Center
Thu 10:08:50 AM 39.0119 -90.4711 292° West 407 468 36,000  Level Kansas City Center
Thu 10:09:52 AM 39.0556 -90.6036 293° West 407 468 36,000  Level Kansas City Center
Thu 10:10:54 AM 39.0997 -90.7344 294° West 404 465 36,000  Level Kansas City Center
Thu 10:11:56 AM 39.1431 -90.8658 293° West 401 461 36,000  Level Kansas City Center
Thu 10:12:58 AM 39.1944 -91.0250 293° West 402 463 36,000  Level Kansas City Center
Thu 10:14:00 AM 39.2358 -91.1569 292° West 400 460 36,000  Level Kansas City Center
Thu 10:15:02 AM 39.2775 -91.2886 292° West 399 459 36,000  Level Kansas City Center
Thu 10:16:04 AM 39.3197 -91.4208 292° West 400 460 36,000  Level Kansas City Center
Thu 10:17:06 AM 39.3622 -91.5514 293° West 398 458 36,000  Level Kansas City Center
Thu 10:18:07 AM 39.4067 -91.6925 292° West 399 459 36,000  Level Kansas City Center
Thu 10:19:09 AM 39.4483 -91.8247 292° West 400 460 36,000  Level Kansas City Center
Thu 10:20:11 AM 39.4894 -91.9569 292° West 399 459 36,000  Level Kansas City Center
Thu 10:21:13 AM 39.5369 -92.1164 291° West 398 458 36,000  Level Kansas City Center
Thu 10:22:15 AM 39.5472 -92.2644 275° West 411 473 36,000  Level Kansas City Center
Thu 10:23:17 AM 39.5556 -92.4106 274° West 411 473 36,000 -339 Level Kansas City Center
Thu 10:24:19 AM 39.5642 -92.5550 274° West 408 470 35,300 -1,113 Descending Kansas City Center
Thu 10:25:21 AM 39.5722 -92.7000 274° West 406 467 33,700 -2,032 Descending Kansas City Center
Thu 10:26:23 AM 39.5819 -92.8819 274° West 416 479 31,100 -2,516 Descending Kansas City Center
Thu 10:27:25 AM 39.5900 -93.0333 274° West 422 486 28,500 -2,496 Descending Kansas City Center
Thu 10:28:28 AM 39.5969 -93.1814 274° West 416 479 25,900 -2,688 Descending Kansas City Center
Thu 10:29:30 AM 39.6058 -93.3292 275° West 414 476 22,900 -2,952 Descending Kansas City Center
Thu 10:30:32 AM 39.6128 -93.4725 274° West 407 468 19,800 -2,855 Descending Kansas City Center
Thu 10:31:34 AM 39.6197 -93.6114 274° West 393 452 17,000 -3,097 Descending Kansas City Center
Thu 10:32:36 AM 39.6250 -93.7711 273° West 378 435 13,400 -2,419 Descending Kansas City Center
Thu 10:33:38 AM 39.6247 -93.8908 270° West 351 404 12,000 -1,306 Descending Kansas City Center
Thu 10:34:40 AM 39.5661 -94.0017 236° Southwest 326 375 10,700 -1,355 Descending Kansas City Center
Thu 10:35:42 AM 39.5253 -94.0878 238° Southwest 296 341 9,200 -1,500 Descending Kansas City Center
Thu 10:36:44 AM 39.5047 -94.1928 256° West 270 311 7,600 -1,065 Descending Kansas City Center
Thu 10:37:46 AM 39.4875 -94.2836 256° West 272 313 7,000 -629 Descending Kansas City Center
Thu 10:38:48 AM 39.4650 -94.3911 255° West 276 318 6,300 -629 Descending Kansas City Center
Thu 10:39:50 AM 39.4486 -94.4717 255° West 242 278 5,700 -1,065 Descending Kansas City Center
Thu 10:40:52 AM 39.4306 -94.5603 255° West 231 266 4,100 -1,210 Descending Kansas City Center
Thu 10:41:54 AM 39.4186 -94.6314 258° West 214 246 3,200 -726 Descending Kansas City Center
Thu 10:42:56 AM 39.3981 -94.7011 249° West 174 200 2,600 -677 Descending Kansas City Center
Thu 10:43:58 AM 39.3589 -94.7097 190° South 145 167 1,800 -726 Descending Kansas City Center
Thu 10:45:00 AM 39.3222 -94.7208 193° South 142 163 1,100 -677 Descending Kansas City Center
Thu 10:46:00 AM 39.2976 -94.7139 270° West  Level Estimated
Thu 10:53:00 AM 39.2976 -94.7139 270° West  Level Estimated

Login

Don't have an account? Register now (free) for customized features, flight alerts, and more!